sensor_id;sensor_type;location;lat;lon;timestamp;P1;durP1;ratioP1;P2;durP2;ratioP2
75169;SDS011;63749;49.186;9.222;2023-08-24T00:01:25;12.87;;;7.70;;
75169;SDS011;63749;49.186;9.222;2023-08-24T00:03:50;14.65;;;7.85;;
75169;SDS011;63749;49.186;9.222;2023-08-24T00:06:16;10.00;;;7.80;;
75169;SDS011;63749;49.186;9.222;2023-08-24T00:08:41;10.00;;;7.60;;
75169;SDS011;63749;49.186;9.222;2023-08-24T00:11:07;13.97;;;8.17;;
75169;SDS011;63749;49.186;9.222;2023-08-24T00:13:33;12.77;;;7.75;;
75169;SDS011;63749;49.186;9.222;2023-08-24T00:15:58;14.20;;;8.00;;
75169;SDS011;63749;49.186;9.222;2023-08-24T00:18:24;15.52;;;8.05;;
75169;SDS011;63749;49.186;9.222;2023-08-24T00:20:50;12.47;;;7.80;;
75169;SDS011;63749;49.186;9.222;2023-08-24T00:23:16;11.25;;;7.68;;
75169;SDS011;63749;49.186;9.222;2023-08-24T00:25:42;12.57;;;7.72;;
75169;SDS011;63749;49.186;9.222;2023-08-24T00:28:07;11.00;;;7.90;;
75169;SDS011;63749;49.186;9.222;2023-08-24T00:30:33;12.17;;;7.90;;
75169;SDS011;63749;49.186;9.222;2023-08-24T00:32:58;11.33;;;7.93;;
75169;SDS011;63749;49.186;9.222;2023-08-24T00:35:24;10.77;;;7.90;;
75169;SDS011;63749;49.186;9.222;2023-08-24T00:37:49;9.98;;;8.20;;
75169;SDS011;63749;49.186;9.222;2023-08-24T00:40:15;11.53;;;8.53;;
75169;SDS011;63749;49.186;9.222;2023-08-24T00:42:42;11.85;;;8.07;;
75169;SDS011;63749;49.186;9.222;2023-08-24T00:45:10;11.63;;;8.13;;
75169;SDS011;63749;49.186;9.222;2023-08-24T00:47:37;11.18;;;8.63;;
75169;SDS011;63749;49.186;9.222;2023-08-24T00:50:06;9.80;;;7.97;;
75169;SDS011;63749;49.186;9.222;2023-08-24T00:52:33;11.00;;;7.93;;
75169;SDS011;63749;49.186;9.222;2023-08-24T00:55:00;11.52;;;8.52;;
75169;SDS011;63749;49.186;9.222;2023-08-24T00:57:26;12.52;;;8.30;;
75169;SDS011;63749;49.186;9.222;2023-08-24T00:59:52;11.30;;;8.00;;
75169;SDS011;63749;49.186;9.222;2023-08-24T01:02:18;13.23;;;8.18;;
75169;SDS011;63749;49.186;9.222;2023-08-24T01:04:43;10.33;;;7.87;;
75169;SDS011;63749;49.186;9.222;2023-08-24T01:07:12;13.68;;;8.32;;
75169;SDS011;63749;49.186;9.222;2023-08-24T01:09:38;12.38;;;8.02;;
75169;SDS011;63749;49.186;9.222;2023-08-24T01:12:13;11.73;;;7.90;;
75169;SDS011;63749;49.186;9.222;2023-08-24T01:17:46;11.70;;;8.10;;
75169;SDS011;63749;49.186;9.222;2023-08-24T01:20:12;9.13;;;7.72;;
75169;SDS011;63749;49.186;9.222;2023-08-24T01:22:49;12.30;;;8.25;;
75169;SDS011;63749;49.186;9.222;2023-08-24T01:25:38;13.40;;;8.47;;
75169;SDS011;63749;49.186;9.222;2023-08-24T01:28:07;11.80;;;8.75;;
75169;SDS011;63749;49.186;9.222;2023-08-24T01:30:34;12.85;;;8.57;;
75169;SDS011;63749;49.186;9.222;2023-08-24T01:33:02;11.02;;;8.82;;
75169;SDS011;63749;49.186;9.222;2023-08-24T01:35:29;12.93;;;9.13;;
75169;SDS011;63749;49.186;9.222;2023-08-24T01:37:55;11.13;;;9.00;;
75169;SDS011;63749;49.186;9.222;2023-08-24T01:40:23;13.75;;;9.10;;
75169;SDS011;63749;49.186;9.222;2023-08-24T01:43:03;12.17;;;8.30;;
75169;SDS011;63749;49.186;9.222;2023-08-24T01:45:31;10.77;;;8.65;;
75169;SDS011;63749;49.186;9.222;2023-08-24T01:47:59;11.82;;;8.73;;
75169;SDS011;63749;49.186;9.222;2023-08-24T01:50:27;15.45;;;9.02;;
75169;SDS011;63749;49.186;9.222;2023-08-24T01:52:54;13.32;;;9.07;;
75169;SDS011;63749;49.186;9.222;2023-08-24T01:55:20;12.40;;;8.50;;
75169;SDS011;63749;49.186;9.222;2023-08-24T01:57:45;15.70;;;8.70;;
75169;SDS011;63749;49.186;9.222;2023-08-24T02:00:11;15.03;;;8.30;;
75169;SDS011;63749;49.186;9.222;2023-08-24T02:02:37;14.77;;;8.75;;
75169;SDS011;63749;49.186;9.222;2023-08-24T02:05:03;11.53;;;8.53;;
75169;SDS011;63749;49.186;9.222;2023-08-24T02:07:28;11.93;;;8.73;;
75169;SDS011;63749;49.186;9.222;2023-08-24T02:09:54;11.93;;;8.40;;
75169;SDS011;63749;49.186;9.222;2023-08-24T02:12:19;10.30;;;9.03;;
75169;SDS011;63749;49.186;9.222;2023-08-24T02:14:44;12.10;;;8.67;;
75169;SDS011;63749;49.186;9.222;2023-08-24T02:17:10;12.38;;;9.35;;
75169;SDS011;63749;49.186;9.222;2023-08-24T02:19:35;13.30;;;8.90;;
75169;SDS011;63749;49.186;9.222;2023-08-24T02:22:00;14.33;;;9.60;;
75169;SDS011;63749;49.186;9.222;2023-08-24T02:24:26;11.70;;;9.00;;
75169;SDS011;63749;49.186;9.222;2023-08-24T02:26:51;14.88;;;9.13;;
75169;SDS011;63749;49.186;9.222;2023-08-24T02:29:17;12.10;;;8.93;;
75169;SDS011;63749;49.186;9.222;2023-08-24T02:31:42;14.77;;;9.33;;
75169;SDS011;63749;49.186;9.222;2023-08-24T02:34:07;10.53;;;8.70;;
75169;SDS011;63749;49.186;9.222;2023-08-24T02:36:33;10.63;;;9.00;;
75169;SDS011;63749;49.186;9.222;2023-08-24T02:39:00;12.33;;;9.17;;
75169;SDS011;63749;49.186;9.222;2023-08-24T02:41:26;14.10;;;8.80;;
75169;SDS011;63749;49.186;9.222;2023-08-24T02:43:52;12.45;;;8.85;;
75169;SDS011;63749;49.186;9.222;2023-08-24T02:46:17;11.35;;;9.00;;
75169;SDS011;63749;49.186;9.222;2023-08-24T02:48:43;20.43;;;9.20;;
75169;SDS011;63749;49.186;9.222;2023-08-24T02:51:09;11.88;;;8.60;;
75169;SDS011;63749;49.186;9.222;2023-08-24T02:53:35;12.73;;;8.80;;
75169;SDS011;63749;49.186;9.222;2023-08-24T02:56:01;11.02;;;8.85;;
75169;SDS011;63749;49.186;9.222;2023-08-24T02:58:27;12.60;;;8.83;;
75169;SDS011;63749;49.186;9.222;2023-08-24T03:00:52;9.98;;;8.60;;
75169;SDS011;63749;49.186;9.222;2023-08-24T03:03:18;14.13;;;8.63;;
75169;SDS011;63749;49.186;9.222;2023-08-24T03:08:29;14.68;;;8.80;;
75169;SDS011;63749;49.186;9.222;2023-08-24T03:10:55;13.30;;;8.65;;
75169;SDS011;63749;49.186;9.222;2023-08-24T03:13:20;10.20;;;8.20;;
75169;SDS011;63749;49.186;9.222;2023-08-24T03:15:45;10.40;;;8.70;;
75169;SDS011;63749;49.186;9.222;2023-08-24T03:18:11;13.60;;;8.87;;
75169;SDS011;63749;49.186;9.222;2023-08-24T03:20:38;11.93;;;8.73;;
75169;SDS011;63749;49.186;9.222;2023-08-24T03:23:04;11.32;;;8.90;;
75169;SDS011;63749;49.186;9.222;2023-08-24T03:25:30;15.70;;;9.30;;
75169;SDS011;63749;49.186;9.222;2023-08-24T03:28:00;13.27;;;9.17;;
75169;SDS011;63749;49.186;9.222;2023-08-24T03:30:25;10.30;;;9.10;;
75169;SDS011;63749;49.186;9.222;2023-08-24T03:32:50;15.45;;;8.90;;
75169;SDS011;63749;49.186;9.222;2023-08-24T03:35:16;10.50;;;9.40;;
75169;SDS011;63749;49.186;9.222;2023-08-24T03:37:41;10.93;;;9.13;;
75169;SDS011;63749;49.186;9.222;2023-08-24T03:40:06;12.43;;;9.20;;
75169;SDS011;63749;49.186;9.222;2023-08-24T03:42:32;12.55;;;9.05;;
75169;SDS011;63749;49.186;9.222;2023-08-24T03:44:59;11.67;;;9.37;;
75169;SDS011;63749;49.186;9.222;2023-08-24T03:47:24;14.57;;;9.27;;
75169;SDS011;63749;49.186;9.222;2023-08-24T03:49:49;11.23;;;9.10;;
75169;SDS011;63749;49.186;9.222;2023-08-24T03:52:15;11.03;;;9.63;;
75169;SDS011;63749;49.186;9.222;2023-08-24T03:54:40;11.00;;;9.47;;
75169;SDS011;63749;49.186;9.222;2023-08-24T03:57:06;11.07;;;9.37;;
75169;SDS011;63749;49.186;9.222;2023-08-24T03:59:31;12.47;;;9.50;;
75169;SDS011;63749;49.186;9.222;2023-08-24T04:01:56;13.53;;;9.30;;
75169;SDS011;63749;49.186;9.222;2023-08-24T04:04:26;13.57;;;8.88;;
75169;SDS011;63749;49.186;9.222;2023-08-24T04:06:52;13.80;;;9.40;;
75169;SDS011;63749;49.186;9.222;2023-08-24T04:09:17;18.77;;;13.73;;
75169;SDS011;63749;49.186;9.222;2023-08-24T04:11:43;13.30;;;11.90;;
75169;SDS011;63749;49.186;9.222;2023-08-24T04:14:08;15.00;;;11.30;;
75169;SDS011;63749;49.186;9.222;2023-08-24T04:16:33;14.93;;;11.40;;
75169;SDS011;63749;49.186;9.222;2023-08-24T04:18:59;13.50;;;10.80;;
75169;SDS011;63749;49.186;9.222;2023-08-24T04:21:24;11.90;;;8.53;;
75169;SDS011;63749;49.186;9.222;2023-08-24T04:23:49;15.43;;;8.43;;
75169;SDS011;63749;49.186;9.222;2023-08-24T04:26:15;11.70;;;8.03;;
75169;SDS011;63749;49.186;9.222;2023-08-24T04:28:40;10.47;;;8.40;;
75169;SDS011;63749;49.186;9.222;2023-08-24T04:31:05;9.70;;;7.80;;
75169;SDS011;63749;49.186;9.222;2023-08-24T04:33:31;12.27;;;8.50;;
75169;SDS011;63749;49.186;9.222;2023-08-24T04:35:58;11.63;;;8.27;;
75169;SDS011;63749;49.186;9.222;2023-08-24T04:38:23;11.10;;;8.30;;
75169;SDS011;63749;49.186;9.222;2023-08-24T04:40:52;13.73;;;8.07;;
75169;SDS011;63749;49.186;9.222;2023-08-24T04:43:19;13.02;;;7.70;;
75169;SDS011;63749;49.186;9.222;2023-08-24T04:45:49;11.60;;;8.18;;
75169;SDS011;63749;49.186;9.222;2023-08-24T04:48:21;11.43;;;8.30;;
75169;SDS011;63749;49.186;9.222;2023-08-24T04:50:48;10.80;;;8.15;;
75169;SDS011;63749;49.186;9.222;2023-08-24T04:53:15;11.83;;;8.40;;
75169;SDS011;63749;49.186;9.222;2023-08-24T04:55:42;10.35;;;7.93;;
75169;SDS011;63749;49.186;9.222;2023-08-24T04:58:08;11.43;;;7.80;;
75169;SDS011;63749;49.186;9.222;2023-08-24T05:00:34;10.88;;;7.90;;
75169;SDS011;63749;49.186;9.222;2023-08-24T05:03:03;10.93;;;7.80;;
75169;SDS011;63749;49.186;9.222;2023-08-24T05:05:30;14.00;;;8.13;;
75169;SDS011;63749;49.186;9.222;2023-08-24T05:07:56;12.75;;;7.85;;
75169;SDS011;63749;49.186;9.222;2023-08-24T05:10:22;10.82;;;7.82;;
75169;SDS011;63749;49.186;9.222;2023-08-24T05:12:47;10.73;;;7.77;;
75169;SDS011;63749;49.186;9.222;2023-08-24T05:15:12;13.53;;;7.53;;
75169;SDS011;63749;49.186;9.222;2023-08-24T05:17:38;11.60;;;7.35;;
75169;SDS011;63749;49.186;9.222;2023-08-24T05:20:04;9.73;;;7.28;;
75169;SDS011;63749;49.186;9.222;2023-08-24T05:22:31;10.37;;;7.50;;
75169;SDS011;63749;49.186;9.222;2023-08-24T05:24:56;13.07;;;7.53;;
75169;SDS011;63749;49.186;9.222;2023-08-24T05:27:21;11.27;;;7.37;;
75169;SDS011;63749;49.186;9.222;2023-08-24T05:29:47;9.20;;;7.23;;
75169;SDS011;63749;49.186;9.222;2023-08-24T05:32:12;13.17;;;7.40;;
75169;SDS011;63749;49.186;9.222;2023-08-24T05:34:37;14.40;;;7.70;;
75169;SDS011;63749;49.186;9.222;2023-08-24T05:37:03;11.97;;;7.77;;
75169;SDS011;63749;49.186;9.222;2023-08-24T05:39:28;10.70;;;7.40;;
75169;SDS011;63749;49.186;9.222;2023-08-24T05:41:53;10.40;;;7.63;;
75169;SDS011;63749;49.186;9.222;2023-08-24T05:44:19;10.63;;;7.53;;
75169;SDS011;63749;49.186;9.222;2023-08-24T05:46:45;10.70;;;7.70;;
75169;SDS011;63749;49.186;9.222;2023-08-24T05:49:11;10.20;;;7.70;;
75169;SDS011;63749;49.186;9.222;2023-08-24T05:51:37;10.60;;;7.20;;
75169;SDS011;63749;49.186;9.222;2023-08-24T05:54:03;10.70;;;7.00;;
75169;SDS011;63749;49.186;9.222;2023-08-24T05:56:28;9.85;;;6.80;;
75169;SDS011;63749;49.186;9.222;2023-08-24T05:58:54;10.83;;;6.27;;
75169;SDS011;63749;49.186;9.222;2023-08-24T06:01:22;13.00;;;6.30;;
75169;SDS011;63749;49.186;9.222;2023-08-24T06:03:48;11.20;;;6.57;;
75169;SDS011;63749;49.186;9.222;2023-08-24T06:06:14;9.23;;;6.30;;
75169;SDS011;63749;49.186;9.222;2023-08-24T06:08:40;9.50;;;6.53;;
75169;SDS011;63749;49.186;9.222;2023-08-24T06:11:05;11.53;;;6.47;;
75169;SDS011;63749;49.186;9.222;2023-08-24T06:13:30;10.77;;;6.30;;
75169;SDS011;63749;49.186;9.222;2023-08-24T06:15:55;9.03;;;5.93;;
75169;SDS011;63749;49.186;9.222;2023-08-24T06:18:21;11.38;;;5.80;;
75169;SDS011;63749;49.186;9.222;2023-08-24T06:20:46;10.20;;;5.93;;
75169;SDS011;63749;49.186;9.222;2023-08-24T06:23:14;10.25;;;5.53;;
75169;SDS011;63749;49.186;9.222;2023-08-24T06:25:41;9.57;;;5.40;;
75169;SDS011;63749;49.186;9.222;2023-08-24T06:28:06;9.40;;;5.20;;
75169;SDS011;63749;49.186;9.222;2023-08-24T06:30:36;10.40;;;5.18;;
75169;SDS011;63749;49.186;9.222;2023-08-24T06:33:03;10.30;;;5.32;;
75169;SDS011;63749;49.186;9.222;2023-08-24T06:35:29;12.60;;;5.20;;
75169;SDS011;63749;49.186;9.222;2023-08-24T06:37:55;10.97;;;5.53;;
75169;SDS011;63749;49.186;9.222;2023-08-24T06:40:20;7.22;;;5.10;;
75169;SDS011;63749;49.186;9.222;2023-08-24T06:42:46;9.30;;;4.90;;
75169;SDS011;63749;49.186;9.222;2023-08-24T06:45:11;9.23;;;4.67;;
75169;SDS011;63749;49.186;9.222;2023-08-24T06:47:37;7.65;;;4.10;;
75169;SDS011;63749;49.186;9.222;2023-08-24T06:50:03;9.20;;;4.43;;
75169;SDS011;63749;49.186;9.222;2023-08-24T06:52:28;8.37;;;3.90;;
75169;SDS011;63749;49.186;9.222;2023-08-24T06:54:53;5.77;;;3.80;;
75169;SDS011;63749;49.186;9.222;2023-08-24T06:57:21;6.47;;;3.88;;
75169;SDS011;63749;49.186;9.222;2023-08-24T06:59:46;10.77;;;4.00;;
75169;SDS011;63749;49.186;9.222;2023-08-24T07:02:12;7.27;;;3.73;;
75169;SDS011;63749;49.186;9.222;2023-08-24T07:04:37;11.07;;;3.97;;
75169;SDS011;63749;49.186;9.222;2023-08-24T07:07:05;8.95;;;3.95;;
75169;SDS011;63749;49.186;9.222;2023-08-24T07:09:30;5.80;;;3.80;;
75169;SDS011;63749;49.186;9.222;2023-08-24T07:11:56;6.90;;;3.80;;
75169;SDS011;63749;49.186;9.222;2023-08-24T07:14:21;7.10;;;3.90;;
75169;SDS011;63749;49.186;9.222;2023-08-24T07:16:46;8.57;;;3.90;;
75169;SDS011;63749;49.186;9.222;2023-08-24T07:19:12;8.47;;;3.60;;
75169;SDS011;63749;49.186;9.222;2023-08-24T07:21:37;7.60;;;3.90;;
75169;SDS011;63749;49.186;9.222;2023-08-24T07:24:03;5.63;;;3.60;;
75169;SDS011;63749;49.186;9.222;2023-08-24T07:26:28;8.50;;;4.10;;
75169;SDS011;63749;49.186;9.222;2023-08-24T07:28:55;6.80;;;4.32;;
75169;SDS011;63749;49.186;9.222;2023-08-24T07:31:21;8.53;;;3.97;;
75169;SDS011;63749;49.186;9.222;2023-08-24T07:33:46;5.47;;;4.10;;
75169;SDS011;63749;49.186;9.222;2023-08-24T07:36:12;7.32;;;4.07;;
75169;SDS011;63749;49.186;9.222;2023-08-24T07:38:38;9.80;;;4.37;;
75169;SDS011;63749;49.186;9.222;2023-08-24T07:41:03;6.47;;;3.97;;
75169;SDS011;63749;49.186;9.222;2023-08-24T07:43:28;7.40;;;4.10;;
75169;SDS011;63749;49.186;9.222;2023-08-24T07:45:54;6.23;;;4.40;;
75169;SDS011;63749;49.186;9.222;2023-08-24T07:48:19;6.33;;;4.03;;
75169;SDS011;63749;49.186;9.222;2023-08-24T07:50:45;6.23;;;4.20;;
75169;SDS011;63749;49.186;9.222;2023-08-24T07:53:10;8.33;;;4.60;;
75169;SDS011;63749;49.186;9.222;2023-08-24T07:55:36;9.97;;;4.20;;
75169;SDS011;63749;49.186;9.222;2023-08-24T07:58:01;5.77;;;4.30;;
75169;SDS011;63749;49.186;9.222;2023-08-24T08:00:27;10.10;;;4.00;;
75169;SDS011;63749;49.186;9.222;2023-08-24T08:02:53;8.80;;;4.10;;
75169;SDS011;63749;49.186;9.222;2023-08-24T08:05:18;5.47;;;4.00;;
75169;SDS011;63749;49.186;9.222;2023-08-24T08:07:44;7.43;;;4.00;;
75169;SDS011;63749;49.186;9.222;2023-08-24T08:10:09;7.07;;;4.03;;
75169;SDS011;63749;49.186;9.222;2023-08-24T08:12:35;5.77;;;3.80;;
75169;SDS011;63749;49.186;9.222;2023-08-24T08:15:00;7.53;;;3.88;;
75169;SDS011;63749;49.186;9.222;2023-08-24T08:17:26;9.73;;;4.10;;
75169;SDS011;63749;49.186;9.222;2023-08-24T08:19:56;7.72;;;3.65;;
75169;SDS011;63749;49.186;9.222;2023-08-24T08:22:22;6.53;;;3.75;;
75169;SDS011;63749;49.186;9.222;2023-08-24T08:24:48;5.18;;;4.07;;
75169;SDS011;63749;49.186;9.222;2023-08-24T08:27:16;7.60;;;3.90;;
75169;SDS011;63749;49.186;9.222;2023-08-24T08:29:41;5.27;;;3.80;;
75169;SDS011;63749;49.186;9.222;2023-08-24T08:32:07;6.57;;;4.10;;
75169;SDS011;63749;49.186;9.222;2023-08-24T08:34:33;6.80;;;4.10;;
75169;SDS011;63749;49.186;9.222;2023-08-24T08:36:58;7.07;;;4.20;;
75169;SDS011;63749;49.186;9.222;2023-08-24T08:39:23;5.07;;;3.83;;
75169;SDS011;63749;49.186;9.222;2023-08-24T08:41:49;7.30;;;4.13;;
75169;SDS011;63749;49.186;9.222;2023-08-24T08:44:14;9.73;;;4.00;;
75169;SDS011;63749;49.186;9.222;2023-08-24T08:46:41;8.23;;;4.20;;
75169;SDS011;63749;49.186;9.222;2023-08-24T08:49:07;7.25;;;4.15;;
75169;SDS011;63749;49.186;9.222;2023-08-24T08:51:35;8.23;;;4.15;;
75169;SDS011;63749;49.186;9.222;2023-08-24T08:54:02;5.25;;;4.00;;
75169;SDS011;63749;49.186;9.222;2023-08-24T08:56:28;8.98;;;4.00;;
75169;SDS011;63749;49.186;9.222;2023-08-24T08:58:54;7.90;;;3.83;;
75169;SDS011;63749;49.186;9.222;2023-08-24T09:01:21;9.48;;;4.30;;
75169;SDS011;63749;49.186;9.222;2023-08-24T09:03:47;8.60;;;4.15;;
75169;SDS011;63749;49.186;9.222;2023-08-24T09:06:13;6.70;;;4.00;;
75169;SDS011;63749;49.186;9.222;2023-08-24T09:08:39;9.40;;;4.20;;
75169;SDS011;63749;49.186;9.222;2023-08-24T09:11:04;8.63;;;4.10;;
75169;SDS011;63749;49.186;9.222;2023-08-24T09:13:33;8.57;;;4.20;;
75169;SDS011;63749;49.186;9.222;2023-08-24T09:16:05;8.43;;;4.50;;
75169;SDS011;63749;49.186;9.222;2023-08-24T09:18:38;6.45;;;4.25;;
75169;SDS011;63749;49.186;9.222;2023-08-24T09:21:08;10.00;;;4.50;;
75169;SDS011;63749;49.186;9.222;2023-08-24T09:23:34;8.60;;;4.03;;
75169;SDS011;63749;49.186;9.222;2023-08-24T09:25:59;10.27;;;4.30;;
75169;SDS011;63749;49.186;9.222;2023-08-24T09:28:25;13.73;;;4.57;;
75169;SDS011;63749;49.186;9.222;2023-08-24T09:30:53;7.10;;;4.67;;
75169;SDS011;63749;49.186;9.222;2023-08-24T09:33:22;10.55;;;4.35;;
75169;SDS011;63749;49.186;9.222;2023-08-24T09:35:53;11.45;;;4.40;;
75169;SDS011;63749;49.186;9.222;2023-08-24T09:38:23;7.43;;;4.07;;
75169;SDS011;63749;49.186;9.222;2023-08-24T09:40:52;12.63;;;4.50;;
75169;SDS011;63749;49.186;9.222;2023-08-24T09:43:18;12.17;;;4.57;;
75169;SDS011;63749;49.186;9.222;2023-08-24T09:46:02;7.75;;;4.20;;
75169;SDS011;63749;49.186;9.222;2023-08-24T09:48:29;6.43;;;4.50;;
75169;SDS011;63749;49.186;9.222;2023-08-24T09:50:56;7.07;;;4.35;;
75169;SDS011;63749;49.186;9.222;2023-08-24T09:53:22;6.37;;;4.70;;
75169;SDS011;63749;49.186;9.222;2023-08-24T09:55:49;6.95;;;4.63;;
75169;SDS011;63749;49.186;9.222;2023-08-24T09:58:21;8.82;;;5.10;;
75169;SDS011;63749;49.186;9.222;2023-08-24T10:00:47;8.40;;;4.72;;
75169;SDS011;63749;49.186;9.222;2023-08-24T10:03:15;9.32;;;4.30;;
75169;SDS011;63749;49.186;9.222;2023-08-24T10:05:50;9.60;;;4.67;;
75169;SDS011;63749;49.186;9.222;2023-08-24T10:08:20;8.85;;;4.47;;
75169;SDS011;63749;49.186;9.222;2023-08-24T10:10:47;7.43;;;4.72;;
75169;SDS011;63749;49.186;9.222;2023-08-24T10:13:18;9.65;;;4.88;;
75169;SDS011;63749;49.186;9.222;2023-08-24T10:15:48;10.00;;;5.60;;
75169;SDS011;63749;49.186;9.222;2023-08-24T10:18:15;10.53;;;4.80;;
75169;SDS011;63749;49.186;9.222;2023-08-24T10:20:41;8.27;;;5.00;;
75169;SDS011;63749;49.186;9.222;2023-08-24T10:23:10;6.13;;;4.63;;
75169;SDS011;63749;49.186;9.222;2023-08-24T10:25:37;9.52;;;5.13;;
75169;SDS011;63749;49.186;9.222;2023-08-24T10:28:04;10.70;;;5.03;;
75169;SDS011;63749;49.186;9.222;2023-08-24T10:30:32;8.50;;;5.13;;
75169;SDS011;63749;49.186;9.222;2023-08-24T10:32:59;6.95;;;4.78;;
75169;SDS011;63749;49.186;9.222;2023-08-24T10:35:25;8.13;;;4.90;;
75169;SDS011;63749;49.186;9.222;2023-08-24T10:37:52;9.37;;;5.20;;
75169;SDS011;63749;49.186;9.222;2023-08-24T10:40:34;7.97;;;4.80;;
75169;SDS011;63749;49.186;9.222;2023-08-24T10:43:04;9.43;;;4.72;;
75169;SDS011;63749;49.186;9.222;2023-08-24T10:48:24;6.15;;;4.43;;
75169;SDS011;63749;49.186;9.222;2023-08-24T10:56:24;10.45;;;5.00;;
75169;SDS011;63749;49.186;9.222;2023-08-24T10:59:12;9.38;;;4.80;;
75169;SDS011;63749;49.186;9.222;2023-08-24T11:01:42;8.70;;;5.22;;
75169;SDS011;63749;49.186;9.222;2023-08-24T11:04:16;7.90;;;5.00;;
75169;SDS011;63749;49.186;9.222;2023-08-24T11:06:51;9.70;;;4.88;;
75169;SDS011;63749;49.186;9.222;2023-08-24T11:09:18;9.27;;;5.22;;
75169;SDS011;63749;49.186;9.222;2023-08-24T11:11:55;8.40;;;5.23;;
75169;SDS011;63749;49.186;9.222;2023-08-24T11:14:28;8.15;;;5.60;;
75169;SDS011;63749;49.186;9.222;2023-08-24T11:16:58;6.70;;;4.80;;
75169;SDS011;63749;49.186;9.222;2023-08-24T11:19:25;8.02;;;4.90;;
75169;SDS011;63749;49.186;9.222;2023-08-24T11:21:50;11.37;;;5.17;;
75169;SDS011;63749;49.186;9.222;2023-08-24T11:24:16;11.98;;;5.40;;
75169;SDS011;63749;49.186;9.222;2023-08-24T11:26:43;8.13;;;5.10;;
75169;SDS011;63749;49.186;9.222;2023-08-24T11:29:12;8.15;;;5.50;;
75169;SDS011;63749;49.186;9.222;2023-08-24T11:31:38;8.75;;;5.28;;
75169;SDS011;63749;49.186;9.222;2023-08-24T11:34:04;10.63;;;5.28;;
75169;SDS011;63749;49.186;9.222;2023-08-24T11:36:48;8.83;;;5.50;;
75169;SDS011;63749;49.186;9.222;2023-08-24T11:39:15;12.15;;;5.70;;
75169;SDS011;63749;49.186;9.222;2023-08-24T11:41:42;7.85;;;5.20;;
75169;SDS011;63749;49.186;9.222;2023-08-24T11:44:07;9.17;;;5.20;;
75169;SDS011;63749;49.186;9.222;2023-08-24T11:46:33;9.53;;;5.20;;
75169;SDS011;63749;49.186;9.222;2023-08-24T11:48:58;8.65;;;5.47;;
75169;SDS011;63749;49.186;9.222;2023-08-24T11:51:24;10.30;;;5.30;;
75169;SDS011;63749;49.186;9.222;2023-08-24T11:53:49;7.40;;;5.07;;
75169;SDS011;63749;49.186;9.222;2023-08-24T11:56:15;9.02;;;5.20;;
75169;SDS011;63749;49.186;9.222;2023-08-24T11:58:43;9.77;;;5.07;;
75169;SDS011;63749;49.186;9.222;2023-08-24T12:01:13;6.68;;;5.13;;
75169;SDS011;63749;49.186;9.222;2023-08-24T12:03:39;9.02;;;5.20;;
75169;SDS011;63749;49.186;9.222;2023-08-24T12:06:15;9.37;;;5.47;;
75169;SDS011;63749;49.186;9.222;2023-08-24T12:08:41;6.57;;;5.25;;
75169;SDS011;63749;49.186;9.222;2023-08-24T12:11:19;8.95;;;5.40;;
75169;SDS011;63749;49.186;9.222;2023-08-24T12:13:46;8.43;;;5.10;;
75169;SDS011;63749;49.186;9.222;2023-08-24T12:16:15;7.88;;;5.32;;
75169;SDS011;63749;49.186;9.222;2023-08-24T12:18:48;9.85;;;5.03;;
75169;SDS011;63749;49.186;9.222;2023-08-24T12:21:14;6.20;;;5.07;;
75169;SDS011;63749;49.186;9.222;2023-08-24T12:23:39;10.13;;;5.60;;
75169;SDS011;63749;49.186;9.222;2023-08-24T12:26:05;8.38;;;5.32;;
75169;SDS011;63749;49.186;9.222;2023-08-24T12:28:33;7.55;;;5.53;;
75169;SDS011;63749;49.186;9.222;2023-08-24T12:30:59;7.77;;;5.50;;
75169;SDS011;63749;49.186;9.222;2023-08-24T12:33:29;10.32;;;5.75;;
75169;SDS011;63749;49.186;9.222;2023-08-24T12:35:56;9.75;;;5.13;;
75169;SDS011;63749;49.186;9.222;2023-08-24T12:38:24;9.30;;;5.55;;
75169;SDS011;63749;49.186;9.222;2023-08-24T12:40:51;9.23;;;5.40;;
75169;SDS011;63749;49.186;9.222;2023-08-24T12:43:17;6.82;;;5.45;;
75169;SDS011;63749;49.186;9.222;2023-08-24T12:45:42;10.63;;;6.10;;
75169;SDS011;63749;49.186;9.222;2023-08-24T12:48:08;10.35;;;6.10;;
75169;SDS011;63749;49.186;9.222;2023-08-24T12:50:35;6.95;;;5.30;;
75169;SDS011;63749;49.186;9.222;2023-08-24T12:53:03;9.50;;;6.00;;
75169;SDS011;63749;49.186;9.222;2023-08-24T12:55:31;10.15;;;5.60;;
75169;SDS011;63749;49.186;9.222;2023-08-24T12:57:57;8.45;;;5.90;;
75169;SDS011;63749;49.186;9.222;2023-08-24T13:00:23;10.75;;;6.60;;
75169;SDS011;63749;49.186;9.222;2023-08-24T13:02:49;8.13;;;5.80;;
75169;SDS011;63749;49.186;9.222;2023-08-24T13:05:15;10.98;;;6.30;;
75169;SDS011;63749;49.186;9.222;2023-08-24T13:07:40;8.77;;;5.33;;
75169;SDS011;63749;49.186;9.222;2023-08-24T13:10:06;8.23;;;5.80;;
75169;SDS011;63749;49.186;9.222;2023-08-24T13:12:31;8.77;;;5.80;;
75169;SDS011;63749;49.186;9.222;2023-08-24T13:14:57;11.55;;;6.30;;
75169;SDS011;63749;49.186;9.222;2023-08-24T13:17:23;6.93;;;5.73;;
75169;SDS011;63749;49.186;9.222;2023-08-24T13:19:48;9.13;;;6.00;;
75169;SDS011;63749;49.186;9.222;2023-08-24T13:22:14;7.37;;;6.27;;
75169;SDS011;63749;49.186;9.222;2023-08-24T13:24:40;9.67;;;6.20;;
75169;SDS011;63749;49.186;9.222;2023-08-24T13:27:08;10.40;;;5.60;;
75169;SDS011;63749;49.186;9.222;2023-08-24T13:29:35;8.13;;;5.43;;
75169;SDS011;63749;49.186;9.222;2023-08-24T13:32:01;12.20;;;5.30;;
75169;SDS011;63749;49.186;9.222;2023-08-24T13:34:27;7.60;;;5.80;;
75169;SDS011;63749;49.186;9.222;2023-08-24T13:36:52;9.07;;;6.13;;
75169;SDS011;63749;49.186;9.222;2023-08-24T13:39:18;5.80;;;5.23;;
75169;SDS011;63749;49.186;9.222;2023-08-24T13:41:43;11.93;;;5.53;;
75169;SDS011;63749;49.186;9.222;2023-08-24T13:44:09;7.80;;;5.95;;
75169;SDS011;63749;49.186;9.222;2023-08-24T13:46:34;9.03;;;6.43;;
75169;SDS011;63749;49.186;9.222;2023-08-24T13:48:59;8.67;;;5.70;;
75169;SDS011;63749;49.186;9.222;2023-08-24T13:51:25;9.20;;;5.77;;
75169;SDS011;63749;49.186;9.222;2023-08-24T13:53:50;9.93;;;5.80;;
75169;SDS011;63749;49.186;9.222;2023-08-24T13:56:16;9.73;;;5.40;;
75169;SDS011;63749;49.186;9.222;2023-08-24T13:58:41;9.23;;;5.60;;
75169;SDS011;63749;49.186;9.222;2023-08-24T14:01:06;7.80;;;5.90;;
75169;SDS011;63749;49.186;9.222;2023-08-24T14:03:32;6.60;;;5.90;;
75169;SDS011;63749;49.186;9.222;2023-08-24T14:05:57;9.35;;;5.50;;
75169;SDS011;63749;49.186;9.222;2023-08-24T14:08:23;13.67;;;5.20;;
75169;SDS011;63749;49.186;9.222;2023-08-24T14:10:49;7.30;;;5.30;;
75169;SDS011;63749;49.186;9.222;2023-08-24T14:13:15;8.53;;;5.20;;
75169;SDS011;63749;49.186;9.222;2023-08-24T14:15:40;6.97;;;5.15;;
75169;SDS011;63749;49.186;9.222;2023-08-24T14:18:06;8.13;;;5.67;;
75169;SDS011;63749;49.186;9.222;2023-08-24T14:20:31;6.88;;;5.20;;
75169;SDS011;63749;49.186;9.222;2023-08-24T14:22:58;6.80;;;5.50;;
75169;SDS011;63749;49.186;9.222;2023-08-24T14:25:23;7.57;;;5.40;;
75169;SDS011;63749;49.186;9.222;2023-08-24T14:27:48;10.07;;;7.47;;
75169;SDS011;63749;49.186;9.222;2023-08-24T14:30:14;8.10;;;5.37;;
75169;SDS011;63749;49.186;9.222;2023-08-24T14:32:39;10.60;;;5.10;;
75169;SDS011;63749;49.186;9.222;2023-08-24T14:35:05;9.65;;;5.22;;
75169;SDS011;63749;49.186;9.222;2023-08-24T14:37:31;10.67;;;5.30;;
75169;SDS011;63749;49.186;9.222;2023-08-24T14:39:58;15.65;;;11.95;;
75169;SDS011;63749;49.186;9.222;2023-08-24T14:42:24;9.55;;;5.53;;
75169;SDS011;63749;49.186;9.222;2023-08-24T14:44:49;8.60;;;5.60;;
75169;SDS011;63749;49.186;9.222;2023-08-24T14:47:14;8.57;;;5.20;;
75169;SDS011;63749;49.186;9.222;2023-08-24T14:49:40;11.63;;;5.50;;
75169;SDS011;63749;49.186;9.222;2023-08-24T14:52:05;9.52;;;5.70;;